createdAt,value
2022-12-12T00:55:34.615Z,99.32
2022-12-12T01:58:53.526Z,99.99
2022-12-12T05:11:01.875Z,99.79
2022-12-12T05:12:02.833Z,99.79
2022-12-12T05:13:02.580Z,99.68
2022-12-12T05:14:02.643Z,99.68
2022-12-12T05:15:02.627Z,99.79
2022-12-12T05:16:02.701Z,99.79
2022-12-12T05:17:02.767Z,99.79
2022-12-12T05:18:02.659Z,99.79
2022-12-12T05:19:02.753Z,99.79
2022-12-12T05:20:02.623Z,99.90
2022-12-12T05:21:02.628Z,99.99
2022-12-12T05:22:02.680Z,99.99
2022-12-12T07:35:03.678Z,99.95
2022-12-12T07:36:04.649Z,99.95
2022-12-12T07:37:04.632Z,99.85
2022-12-12T07:38:05.158Z,99.85
2022-12-12T07:39:04.685Z,99.74
2022-12-12T07:40:04.650Z,99.64
2022-12-12T07:41:04.652Z,99.64
2022-12-12T07:42:04.627Z,99.64
2022-12-12T07:43:04.647Z,99.64
2022-12-12T07:44:04.590Z,99.74
2022-12-12T07:45:04.612Z,99.85
2022-12-12T08:15:21.530Z,99.54
2022-12-12T08:18:09.559Z,99.85
2022-12-12T08:22:20.052Z,99.64
2022-12-12T08:38:56.912Z,99.49
2022-12-12T08:39:57.780Z,99.49
2022-12-12T08:40:57.920Z,99.49
2022-12-12T08:41:57.812Z,99.49
2022-12-12T08:42:57.726Z,99.38
2022-12-12T08:43:57.672Z,99.18
2022-12-12T08:44:57.944Z,99.18
2022-12-12T08:47:51.068Z,99.07
2022-12-12T08:50:39.532Z,98.86
2022-12-12T08:51:40.520Z,98.86
2022-12-12T09:04:13.956Z,97.98
2022-12-12T09:05:15.260Z,97.83
2022-12-12T09:06:14.720Z,97.72
2022-12-12T09:07:14.745Z,97.52
2022-12-12T09:08:14.817Z,97.41
2022-12-12T09:09:14.807Z,97.41
2022-12-12T09:10:14.700Z,97.31
2022-12-12T09:11:14.718Z,97.20
2022-12-12T09:12:14.696Z,96.78
2022-12-12T09:13:14.695Z,96.68
2022-12-12T09:14:14.652Z,96.78
2022-12-12T09:15:14.905Z,96.78
2022-12-12T09:16:14.785Z,96.68
2022-12-12T09:17:14.848Z,96.58
2022-12-12T09:18:14.653Z,96.58
2022-12-12T09:19:14.506Z,96.58
2022-12-12T09:20:14.519Z,96.58
2022-12-12T09:21:14.617Z,96.58
2022-12-12T09:22:14.548Z,96.58
2022-12-12T09:23:14.446Z,96.58
2022-12-12T09:24:14.608Z,96.47
2022-12-12T09:25:14.692Z,96.53
2022-12-12T09:26:14.419Z,96.53
2022-12-12T09:27:14.423Z,96.53
2022-12-12T09:28:14.425Z,96.33
2022-12-12T09:29:14.387Z,96.33
2022-12-12T09:30:14.387Z,96.01
2022-12-12T09:31:14.429Z,95.80
2022-12-12T09:32:14.366Z,95.80
2022-12-12T09:33:14.358Z,95.70
2022-12-12T09:34:14.355Z,95.80
2022-12-12T09:35:14.612Z,96.11
2022-12-12T09:36:14.327Z,96.01
2022-12-12T09:37:14.300Z,96.01
2022-12-12T09:38:15.196Z,95.80
2022-12-12T09:39:14.279Z,95.70
2022-12-12T09:40:14.320Z,95.38
2022-12-12T09:41:14.275Z,95.49
2022-12-12T09:42:14.255Z,95.49
2022-12-12T09:43:14.239Z,95.49
2022-12-12T09:44:14.292Z,95.28
2022-12-12T09:45:14.421Z,95.07
2022-12-12T09:46:14.308Z,94.92
2022-12-12T09:47:14.192Z,95.03
2022-12-12T09:48:14.202Z,94.82
2022-12-12T09:49:14.174Z,94.50
2022-12-12T09:50:14.586Z,94.50
2022-12-12T09:52:51.706Z,94.92
2022-12-12T09:55:04.381Z,95.03
2022-12-12T09:58:57.407Z,95.13
2022-12-12T09:59:57.936Z,95.13
2022-12-12T10:04:23.356Z,95.55
2022-12-12T10:05:24.230Z,95.55
2022-12-12T10:06:39.372Z,95.50
2022-12-12T10:16:28.995Z,94.10
2022-12-12T10:17:29.921Z,94.00
2022-12-12T10:18:29.836Z,93.90
2022-12-12T10:35:44.943Z,92.91
2022-12-12T10:36:45.801Z,93.12
2022-12-12T10:39:00.410Z,92.81
2022-12-12T11:26:57.554Z,90.79
2022-12-12T11:28:02.086Z,90.26
2022-12-12T11:28:58.435Z,90.26
2022-12-12T11:29:58.502Z,90.47
2022-12-12T11:30:58.429Z,90.26
2022-12-12T11:31:58.591Z,90.26
2022-12-12T11:51:24.701Z,90.56
2022-12-12T11:52:25.189Z,91.08
2022-12-12T11:57:31.649Z,90.52
2022-12-12T11:58:32.444Z,90.58
2022-12-12T12:07:21.915Z,89.64
2022-12-12T12:08:22.750Z,89.54
2022-12-12T12:09:22.628Z,89.75
2022-12-12T12:10:24.570Z,89.95
2022-12-12T12:11:22.672Z,89.95
2022-12-12T12:12:22.607Z,89.95
2022-12-12T12:13:22.566Z,89.64
2022-12-12T12:14:22.662Z,89.95
2022-12-12T12:15:22.697Z,89.22
2022-12-12T12:16:34.955Z,89.54
2022-12-12T12:17:24.048Z,88.39
2022-12-12T12:29:50.485Z,89.89
2022-12-12T12:30:51.279Z,90.31
2022-12-12T12:31:51.081Z,90.31
2022-12-12T12:32:50.782Z,89.78
2022-12-12T12:40:22.563Z,89.47
2022-12-12T12:41:23.497Z,89.68
2022-12-12T12:42:23.178Z,89.37
2022-12-12T12:43:23.110Z,89.16
2022-12-12T12:44:23.103Z,89.06
2022-12-12T12:49:05.958Z,89.37
2022-12-12T12:52:57.371Z,89.58
2022-12-12T12:53:58.373Z,88.85
2022-12-12T12:54:58.183Z,89.93
2022-12-12T12:55:58.059Z,90.52
2022-12-12T12:56:58.093Z,89.72
2022-12-12T13:07:45.264Z,89.68
2022-12-12T13:08:45.211Z,88.95
2022-12-12T13:09:45.116Z,89.78
2022-12-12T13:10:45.295Z,89.89
2022-12-12T13:13:06.553Z,88.95
2022-12-12T13:14:07.491Z,88.99
2022-12-12T13:15:07.442Z,89.72
2022-12-12T13:16:07.539Z,90.03
2022-12-12T13:17:07.559Z,89.93
2022-12-12T13:18:07.401Z,89.41
2022-12-12T13:19:07.402Z,89.83
2022-12-12T13:20:10.814Z,89.51
2022-12-12T13:21:07.379Z,89.72
2022-12-12T13:22:07.360Z,89.93
2022-12-12T13:23:07.373Z,89.62
2022-12-12T13:24:07.339Z,89.31
2022-12-12T13:25:07.330Z,89.31
2022-12-12T13:26:07.310Z,89.62
2022-12-12T13:27:07.324Z,89.51
2022-12-12T13:28:07.306Z,89.51
2022-12-12T13:29:07.294Z,89.41
2022-12-12T13:30:07.273Z,89.10
2022-12-12T13:31:12.755Z,88.47
2022-12-12T13:32:07.258Z,88.68
2022-12-12T13:33:07.251Z,88.78
2022-12-12T13:34:07.247Z,88.12
2022-12-12T13:35:07.235Z,87.60
2022-12-12T13:36:07.263Z,88.01
2022-12-12T13:37:07.209Z,87.60
2022-12-12T13:38:07.225Z,87.39
2022-12-12T13:39:07.216Z,87.07
2022-12-12T13:40:07.166Z,87.81
2022-12-12T13:41:07.171Z,87.60
2022-12-12T13:42:07.157Z,87.53
2022-12-12T13:43:09.891Z,87.63
2022-12-12T13:44:07.224Z,87.53
2022-12-12T13:45:07.139Z,87.63
2022-12-12T14:03:36.830Z,89.53
2022-12-12T14:08:26.790Z,89.58
2022-12-12T14:09:46.341Z,90.09
2022-12-12T14:10:27.452Z,90.09
2022-12-12T14:11:27.330Z,90.52
2022-12-12T14:12:31.509Z,90.83
2022-12-12T14:24:06.911Z,92.16
2022-12-12T14:25:07.776Z,92.69
2022-12-12T14:26:07.728Z,92.48
2022-12-12T14:27:07.669Z,92.42
2022-12-12T14:28:07.724Z,92.42
2022-12-12T14:29:07.740Z,92.42
2022-12-12T14:30:07.670Z,92.42
2022-12-12T14:31:07.670Z,92.88
2022-12-12T14:32:07.655Z,93.30
2022-12-12T14:33:07.658Z,93.19
2022-12-12T14:34:07.800Z,93.30
2022-12-12T14:35:07.627Z,93.40
2022-12-12T14:36:07.537Z,93.51
2022-12-12T14:37:07.539Z,93.51
2022-12-12T14:38:07.519Z,93.71
2022-12-12T14:39:07.570Z,93.93
2022-12-12T14:40:07.482Z,93.82
2022-12-12T14:41:07.504Z,93.82
2022-12-12T14:42:07.509Z,93.82
2022-12-12T14:43:21.067Z,93.87
2022-12-12T14:44:37.741Z,93.97
2022-12-12T14:45:07.448Z,94.07
2022-12-12T14:46:07.502Z,94.18
2022-12-12T14:47:07.411Z,94.38
2022-12-12T14:48:07.406Z,94.64
2022-12-12T14:49:07.382Z,95.06
2022-12-12T14:50:07.518Z,95.58
2022-12-12T14:51:07.466Z,95.79
2022-12-12T14:52:07.370Z,95.90
2022-12-12T14:53:07.376Z,95.90
2022-12-12T15:06:04.405Z,95.98
2022-12-12T15:07:05.374Z,96.13
2022-12-12T15:08:05.263Z,96.24
2022-12-12T15:09:05.264Z,96.34
2022-12-12T15:10:07.730Z,96.55
2022-12-12T15:11:05.413Z,96.66
2022-12-12T15:12:16.667Z,96.87
2022-12-12T15:13:05.555Z,97.02
2022-12-12T15:14:05.432Z,97.12
2022-12-12T15:15:05.392Z,97.23
2022-12-12T15:24:43.466Z,98.64
2022-12-12T15:25:44.415Z,98.74
2022-12-12T15:26:44.459Z,99.05
2022-12-12T15:27:50.801Z,99.16
2022-12-12T15:28:44.639Z,99.27
2022-12-12T15:29:44.377Z,99.41
2022-12-12T15:30:44.377Z,99.41
2022-12-12T15:31:44.444Z,99.52
2022-12-12T15:32:44.338Z,99.52
2022-12-12T15:33:44.365Z,99.52
2022-12-12T15:34:44.338Z,99.52
2022-12-12T15:35:44.329Z,99.52
2022-12-12T15:36:44.313Z,99.73
2022-12-12T15:37:44.320Z,99.95
2022-12-12T15:38:44.311Z,99.99
2022-12-12T15:39:44.300Z,99.95
2022-12-12T15:40:44.260Z,99.99
2022-12-12T15:41:44.301Z,99.99
2022-12-12T15:42:44.241Z,99.99
2022-12-12T15:43:44.245Z,99.99
2022-12-12T15:44:44.374Z,99.99
2022-12-12T15:45:44.233Z,99.99
2022-12-12T15:46:44.244Z,99.99
2022-12-12T15:47:44.201Z,99.99
2022-12-12T15:48:44.177Z,99.99
2022-12-12T15:49:44.199Z,99.99
2022-12-12T15:50:44.231Z,99.99
2022-12-12T15:51:44.160Z,99.99
2022-12-12T15:52:44.220Z,99.99
2022-12-12T15:53:44.201Z,99.99
2022-12-12T15:54:44.203Z,99.99
2022-12-12T15:55:46.879Z,99.99
2022-12-12T15:56:44.159Z,99.99
2022-12-12T15:57:44.217Z,99.99
2022-12-12T15:58:44.147Z,99.99
2022-12-12T15:59:44.140Z,99.99
2022-12-12T16:00:44.171Z,99.99
2022-12-12T16:01:44.175Z,99.99
2022-12-12T16:02:44.109Z,99.99
2022-12-12T16:03:44.087Z,99.99
2022-12-12T16:04:44.103Z,99.99
2022-12-12T16:05:44.082Z,99.99
2022-12-12T16:06:44.065Z,99.99
2022-12-12T16:07:44.053Z,99.99
2022-12-12T16:08:44.106Z,99.99
2022-12-12T16:09:44.032Z,99.99
2022-12-12T16:10:44.041Z,99.99
2022-12-12T16:11:44.020Z,99.99
2022-12-12T16:12:44.023Z,99.99
2022-12-12T16:13:44.005Z,99.99
2022-12-12T16:14:44.004Z,99.99
2022-12-12T16:15:44.785Z,99.99
2022-12-12T16:16:43.981Z,99.99
2022-12-12T16:17:43.987Z,99.99
2022-12-12T16:18:43.948Z,99.99
2022-12-12T16:19:43.941Z,99.99
2022-12-12T16:20:43.941Z,99.99
2022-12-12T16:21:43.913Z,99.99
2022-12-12T16:22:43.959Z,99.99
2022-12-12T16:23:43.929Z,99.99
2022-12-12T16:24:43.896Z,99.99
2022-12-12T16:25:43.907Z,99.99
2022-12-12T16:26:44.057Z,99.99
2022-12-12T16:27:43.875Z,99.99
2022-12-12T16:28:43.868Z,99.99
2022-12-12T16:29:43.822Z,99.99
2022-12-12T16:30:43.843Z,99.99
2022-12-12T16:31:43.822Z,99.99
2022-12-12T16:32:43.799Z,99.99
2022-12-12T16:33:43.800Z,99.99
2022-12-12T16:34:43.775Z,99.99
2022-12-12T16:35:43.896Z,99.99
2022-12-12T16:36:43.768Z,99.99
2022-12-12T16:37:43.754Z,99.99
2022-12-12T16:38:43.964Z,99.99
2022-12-12T16:39:43.771Z,99.99
2022-12-12T16:40:43.735Z,99.99
2022-12-12T17:39:14.554Z,99.99
2022-12-12T17:40:15.705Z,99.99
2022-12-12T17:41:15.351Z,99.99
2022-12-12T17:42:15.390Z,99.99
2022-12-12T17:43:15.470Z,99.99
2022-12-12T17:44:15.371Z,99.99
2022-12-12T17:45:15.297Z,99.99
2022-12-12T18:19:21.310Z,99.99
2022-12-12T18:20:25.402Z,99.99
2022-12-12T18:44:34.895Z,99.99
2022-12-12T18:45:35.900Z,99.99
2022-12-12T18:46:40.514Z,99.99
2022-12-12T20:04:46.301Z,99.99
2022-12-12T21:03:36.659Z,99.99
2022-12-12T21:10:12.086Z,99.99
2022-12-12T21:11:13.255Z,99.99
2022-12-12T21:12:12.928Z,99.99
2022-12-12T21:13:12.909Z,99.99
2022-12-12T21:14:12.888Z,99.99
2022-12-12T22:36:03.458Z,99.99
2022-12-12T22:37:04.241Z,99.99
2022-12-12T22:38:04.243Z,99.99
2022-12-12T22:39:04.173Z,99.99
2022-12-12T22:40:04.146Z,99.99
2022-12-12T22:41:04.172Z,99.99
2022-12-12T22:42:04.214Z,99.99
2022-12-12T22:43:04.126Z,99.99
2022-12-12T22:44:04.151Z,99.99
2022-12-12T22:45:04.120Z,99.99
2022-12-12T22:46:04.160Z,99.99
2022-12-12T22:47:04.133Z,99.99
2022-12-12T22:48:04.129Z,99.99
2022-12-12T22:49:04.061Z,99.99
2022-12-12T22:50:04.038Z,99.99
2022-12-12T22:51:04.133Z,99.99
2022-12-12T22:52:04.072Z,99.99
2022-12-12T22:53:04.094Z,99.99
2022-12-12T22:54:04.037Z,99.99
2022-12-12T22:55:04.058Z,99.99
2022-12-12T22:56:03.998Z,99.99
2022-12-12T22:57:04.014Z,99.99
2022-12-12T22:58:04.064Z,99.99
2022-12-12T22:59:04.046Z,99.99
2022-12-12T23:00:03.998Z,99.99
2022-12-12T23:01:03.920Z,99.99
2022-12-12T23:02:03.986Z,99.99
2022-12-12T23:03:03.951Z,99.99
2022-12-12T23:04:04.074Z,99.99
2022-12-12T23:05:04.035Z,99.99
2022-12-12T23:06:03.970Z,99.99
2022-12-12T23:07:03.953Z,99.99
2022-12-12T23:08:04.011Z,99.99
2022-12-12T23:25:04.694Z,99.99
2022-12-12T23:26:05.642Z,99.99
2022-12-12T23:27:05.486Z,99.99
2022-12-12T23:28:08.188Z,99.99
2022-12-12T23:29:05.532Z,99.99
2022-12-12T23:30:05.510Z,99.99
2022-12-12T23:31:05.494Z,99.99
2022-12-12T23:32:05.527Z,99.99
2022-12-12T23:33:05.393Z,99.99
2022-12-12T23:34:05.438Z,99.99
2022-12-12T23:35:05.476Z,99.99
2022-12-12T23:36:05.450Z,99.99
2022-12-12T23:37:05.462Z,99.99
2022-12-12T23:38:05.425Z,99.99
2022-12-12T23:39:05.419Z,99.99
2022-12-12T23:40:05.401Z,99.99
2022-12-12T23:41:05.310Z,99.99
2022-12-12T23:42:05.319Z,99.99
2022-12-12T23:43:05.543Z,99.99
2022-12-12T23:44:05.402Z,99.99
2022-12-12T23:45:05.318Z,99.99
2022-12-12T23:46:05.393Z,99.99
2022-12-12T23:47:05.370Z,99.99
2022-12-12T23:48:05.330Z,99.99
2022-12-12T23:49:05.256Z,99.99
2022-12-12T23:50:05.243Z,99.99
2022-12-12T23:51:05.252Z,99.99
2022-12-12T23:52:05.331Z,99.99
2022-12-12T23:53:10.433Z,99.99
2022-12-12T23:54:05.292Z,99.99
2022-12-12T23:55:05.275Z,99.99
2022-12-12T23:56:05.299Z,99.99
2022-12-12T23:57:05.189Z,99.99
2022-12-12T23:58:05.163Z,99.99
2022-12-12T23:59:05.173Z,99.99
